Airfield :
LOGIN :

Register | Disclaimer

   EN    FR    IT 

 










Legend :    VFR   Marginal VFR   IFR   Intensive IFR   Very Intensive IFR
Visi :
Ceiling :
>= 8 km
>= 3000ft
5 to 8 km
1000 to 3000 ft
1500m to 5 km
500 to 1000 ft
800 to 1500m
200 to 500 ft
< 800m
< 200 ft
Symbols :   Thunderstorms  Fog  Heavy snow  Heavy precipitations  Wind > 20 kt
SIGMETs :     Misc.  Thunderstorms  Icing  Turbulence  Mountain Waves  Volcanic Ashes






- Airport Elevation : 289 ft
- IATA code : ZAD


LDZD - Zadar

CURRENT METAR :
  • 190000Z 00000KT CAVOK 23/19 Q1015 NOSIG

EXPIRED METARs :
  • 182330Z VRB02KT CAVOK 23/19 Q1015 NOSIG
  • 182300Z 30003KT CAVOK 24/19 Q1015 NOSIG
  • 182230Z 30003KT CAVOK 24/19 Q1015 NOSIG
  • 182200Z VRB02KT CAVOK 24/20 Q1015 NOSIG
  • 182130Z 27005KT CAVOK 24/20 Q1015 NOSIG
  • 182100Z VRB03KT CAVOK 25/20 Q1015 NOSIG
  • 182030Z 14005KT CAVOK 27/19 Q1015 NOSIG
  • 182000Z 16004KT CAVOK 26/20 Q1015 NOSIG
  • 181930Z 08003KT 050V110 CAVOK 27/20 Q1015 NOSIG

TAF TAF LDZD
Valid from the 19 at 00:00 until the 20 at 00:00 UTC


182325Z 1900/2000 VRB02KT CAVOK TX35/1913Z TN22/1903Z
BECMG 1910/1912 30008KT
PROB30
TEMPO 1913/1916 TSRA FEW060CB
BECMG 1915/1917 06007KT
TEMPO 1920/2000 06004KT



MET'MAP, your aeronautical weather chart ! - Copyright ORBIFLY December 2007 - Disclaimer

ORBIFLY MET'MAP TEAM :

Programming & Development : Alexandra Zaïnal
Original concept : Baudouin d'Aumeries
Technical & hardware support : Manuel Goepfert
Assistance : Marc-Olivier Méhu




SOURCES & CREDITS :

   NOAA